Time;durP1;ratioP1;P1;durP2;ratioP2;P2;SDS_P1;SDS_P2;PMS_P1;PMS_P2;Temp;Humidity;BMP_temperature;BMP_pressure;BME280_temperature;BME280_humidity;BME280_pressure;Samples;Min_cycle;Max_cycle;Signal;HPM_P1;HPM_P2
2024/03/10 00:01:27;;;;;;;2.67;1.00;;;12.70;96.70;;;;;;4928251;29;20055;-67
2024/03/10 00:03:56;;;;;;;3.03;1.00;;;12.60;96.70;;;;;;4932487;29;20726;-66
2024/03/10 00:06:24;;;;;;;4.43;1.40;;;12.60;96.70;;;;;;4950013;29;20047;-66
2024/03/10 00:08:54;;;;;;;3.53;1.00;;;12.70;96.70;;;;;;4924368;29;20078;-66
2024/03/10 00:11:23;;;;;;;3.55;1.17;;;12.70;96.70;;;;;;4931523;29;20051;-66
2024/03/10 00:13:55;;;;;;;4.30;1.02;;;12.60;96.70;;;;;;4944033;29;20083;-66
2024/03/10 00:16:25;;;;;;;4.15;1.00;;;12.60;96.70;;;;;;4928997;29;20055;-66
2024/03/10 00:18:53;;;;;;;3.15;1.20;;;12.70;96.70;;;;;;4931877;29;20047;-67
2024/03/10 00:21:21;;;;;;;2.72;1.35;;;12.70;96.70;;;;;;4931890;29;20055;-66
2024/03/10 00:23:49;;;;;;;2.33;0.93;;;12.60;96.70;;;;;;4932053;29;20117;-67
2024/03/10 00:26:18;;;;;;;3.25;1.00;;;12.60;96.70;;;;;;4929751;29;20436;-67
2024/03/10 00:28:48;;;;;;;3.65;1.23;;;12.60;96.70;;;;;;4933380;29;20046;-66
2024/03/10 00:31:16;;;;;;;2.35;1.13;;;12.70;96.70;;;;;;4932307;29;20055;-66
2024/03/10 00:33:47;;;;;;;2.00;0.98;;;12.60;96.70;;;;;;4923253;29;20122;-66
2024/03/10 00:36:18;;;;;;;3.03;0.90;;;12.60;96.70;;;;;;4932310;29;20543;-66
2024/03/10 00:38:48;;;;;;;2.72;0.85;;;12.60;96.70;;;;;;4927887;29;20056;-67
2024/03/10 00:41:16;;;;;;;2.17;1.02;;;12.60;96.70;;;;;;4911258;29;20508;-66
2024/03/10 00:43:45;;;;;;;2.55;0.90;;;12.60;96.70;;;;;;4946093;28;20056;-67
2024/03/10 00:46:14;;;;;;;4.18;1.08;;;12.70;96.70;;;;;;4930691;29;20047;-67
2024/03/10 00:48:42;;;;;;;3.10;0.85;;;12.70;96.70;;;;;;4930805;29;20134;-66
2024/03/10 00:51:13;;;;;;;3.40;1.00;;;12.70;96.70;;;;;;4930139;29;20722;-66
2024/03/10 00:53:41;;;;;;;1.20;0.70;;;12.70;96.70;;;;;;4931379;29;20508;-66
2024/03/10 00:56:10;;;;;;;3.70;1.02;;;12.70;96.70;;;;;;4947504;29;20053;-67
2024/03/10 00:58:39;;;;;;;3.05;0.90;;;12.60;96.70;;;;;;4948594;29;20051;-66
2024/03/10 01:01:08;;;;;;;2.05;0.70;;;12.60;96.70;;;;;;4948640;29;20519;-66
2024/03/10 01:03:40;;;;;;;4.03;1.00;;;12.60;96.70;;;;;;4930018;29;20054;-66
2024/03/10 01:06:12;;;;;;;2.80;1.10;;;12.60;96.70;;;;;;4947378;29;20051;-66
2024/03/10 01:08:40;;;;;;;3.03;0.70;;;12.70;96.70;;;;;;4931563;29;20062;-67
2024/03/10 01:11:08;;;;;;;3.70;0.88;;;12.70;96.70;;;;;;4947425;29;20435;-67
2024/03/10 01:13:38;;;;;;;2.85;0.70;;;12.70;96.70;;;;;;4927593;29;20047;-66
2024/03/10 01:16:07;;;;;;;2.35;0.70;;;12.70;96.70;;;;;;4930951;29;20061;-67
2024/03/10 01:18:35;;;;;;;6.18;0.90;;;12.70;96.70;;;;;;4927421;29;20211;-67
2024/03/10 01:21:04;;;;;;;1.77;0.60;;;12.70;96.70;;;;;;4929317;29;20047;-67
2024/03/10 01:23:35;;;;;;;2.97;0.88;;;12.70;96.70;;;;;;4918349;29;20051;-65
2024/03/10 01:26:05;;;;;;;3.20;0.98;;;12.70;96.70;;;;;;4923867;29;20059;-66
2024/03/10 01:28:33;;;;;;;3.78;0.80;;;12.70;96.70;;;;;;4917175;29;20070;-66
2024/03/10 01:31:02;;;;;;;2.67;0.82;;;12.70;96.70;;;;;;4928416;29;20150;-66
2024/03/10 01:33:33;;;;;;;3.22;0.70;;;12.70;96.70;;;;;;4929345;29;20055;-66
2024/03/10 01:36:04;;;;;;;3.42;0.80;;;12.70;96.70;;;;;;4930546;29;20082;-66
2024/03/10 01:38:34;;;;;;;1.45;0.90;;;12.60;96.70;;;;;;4923583;29;20102;-66
2024/03/10 01:41:02;;;;;;;2.63;0.90;;;12.60;96.70;;;;;;4924078;29;20047;-65
2024/03/10 01:43:32;;;;;;;3.28;1.00;;;12.60;96.70;;;;;;4931492;29;20138;-66
2024/03/10 01:46:06;;;;;;;4.15;0.90;;;12.60;96.70;;;;;;4931249;29;20061;-66
2024/03/10 01:48:37;;;;;;;2.85;0.98;;;12.60;96.70;;;;;;4930908;29;20047;-66
2024/03/10 01:51:06;;;;;;;2.45;0.82;;;12.60;96.70;;;;;;4930844;29;20530;-66
2024/03/10 01:53:37;;;;;;;3.15;1.10;;;12.60;96.70;;;;;;4946660;29;20055;-67
2024/03/10 01:56:09;;;;;;;2.88;1.30;;;12.50;96.70;;;;;;4929684;29;20059;-66
2024/03/10 01:58:38;;;;;;;2.78;1.00;;;12.60;96.70;;;;;;4934292;29;20047;-66
2024/03/10 02:01:09;;;;;;;3.80;0.95;;;12.50;96.70;;;;;;4926798;29;20151;-67
2024/03/10 02:03:38;;;;;;;1.88;1.00;;;12.50;96.70;;;;;;4934542;29;20130;-66
2024/03/10 02:06:12;;;;;;;0.93;0.60;;;12.60;96.70;;;;;;4935186;29;20557;-66
2024/03/10 02:08:44;;;;;;;3.35;0.70;;;12.60;96.70;;;;;;4917108;29;20047;-66
2024/03/10 02:11:13;;;;;;;4.40;1.20;;;12.60;96.70;;;;;;4931682;29;20155;-66
2024/03/10 02:13:41;;;;;;;2.42;1.00;;;12.50;96.70;;;;;;4933540;29;20075;-66
2024/03/10 02:16:11;;;;;;;2.90;1.15;;;12.50;96.70;;;;;;4931677;29;20392;-66
2024/03/10 02:18:40;;;;;;;2.33;0.90;;;12.50;96.70;;;;;;4927989;29;20071;-67
2024/03/10 02:21:08;;;;;;;3.83;1.08;;;12.40;96.70;;;;;;4946614;28;20094;-67
2024/03/10 02:23:45;;;;;;;2.05;0.68;;;12.50;96.70;;;;;;4931764;29;20051;-66
2024/03/10 02:26:16;;;;;;;3.92;1.27;;;12.50;96.70;;;;;;4931853;29;20058;-66
2024/03/10 02:29:04;;;;;;;2.28;0.90;;;12.40;96.70;;;;;;4926115;29;20055;-66
2024/03/10 02:48:20;;;;;;;;;;;12.40;96.70;;;;;;4932482;29;20591;-66
2024/03/10 02:50:53;;;;;;;1.92;0.70;;;12.50;96.70;;;;;;4949294;29;19933;-66
2024/03/10 02:53:21;;;;;;;1.48;0.70;;;12.50;96.70;;;;;;4933571;29;20093;-66
2024/03/10 02:55:50;;;;;;;1.77;0.75;;;12.50;96.70;;;;;;4936351;29;20051;-66
2024/03/10 02:58:22;;;;;;;1.83;0.77;;;12.50;96.70;;;;;;4934279;29;20512;-66
2024/03/10 03:00:50;;;;;;;3.35;0.88;;;12.50;96.70;;;;;;4918428;29;20102;-66
2024/03/10 03:03:19;;;;;;;2.15;0.82;;;12.60;96.70;;;;;;4932307;29;20063;-65
2024/03/10 03:05:48;;;;;;;3.80;1.00;;;12.60;96.70;;;;;;4932889;29;20059;-66
2024/03/10 03:08:17;;;;;;;1.42;0.60;;;12.60;96.70;;;;;;4931850;29;20058;-66
2024/03/10 03:10:47;;;;;;;3.03;0.70;;;12.60;96.70;;;;;;4928022;29;20047;-66
2024/03/10 03:13:16;;;;;;;1.48;0.80;;;12.60;96.70;;;;;;4928521;29;20051;-66
2024/03/10 03:15:46;;;;;;;1.67;0.60;;;12.60;96.70;;;;;;4931872;29;20043;-66
2024/03/10 03:18:14;;;;;;;4.20;0.88;;;12.60;96.70;;;;;;4928654;29;20065;-66
2024/03/10 03:20:43;;;;;;;2.22;0.70;;;12.60;96.70;;;;;;4917037;29;20051;-66
2024/03/10 03:23:11;;;;;;;5.78;1.38;;;12.60;96.70;;;;;;4927692;29;20713;-66
2024/03/10 03:25:40;;;;;;;4.45;0.85;;;12.60;96.70;;;;;;4930626;29;20102;-66
2024/03/10 03:28:09;;;;;;;1.70;0.68;;;12.50;96.70;;;;;;4949075;29;20139;-66
2024/03/10 03:30:37;;;;;;;3.65;0.82;;;12.50;96.70;;;;;;4924196;29;20571;-66
2024/03/10 03:33:09;;;;;;;4.40;1.05;;;12.50;96.70;;;;;;4907543;29;20535;-65
2024/03/10 03:35:38;;;;;;;3.58;0.85;;;12.50;96.70;;;;;;4931959;29;20055;-66
2024/03/10 03:38:08;;;;;;;7.10;0.98;;;12.60;96.70;;;;;;4930922;29;20075;-66
2024/03/10 03:40:36;;;;;;;2.45;0.63;;;12.60;96.70;;;;;;4928767;29;20059;-66
2024/03/10 03:43:05;;;;;;;4.50;0.75;;;12.60;96.70;;;;;;4924375;29;20047;-66
2024/03/10 03:45:35;;;;;;;3.92;0.52;;;12.60;96.70;;;;;;4933445;29;20055;-66
2024/03/10 03:48:07;;;;;;;1.02;0.50;;;12.50;96.70;;;;;;4932393;29;20066;-66
2024/03/10 03:50:35;;;;;;;1.40;0.60;;;12.50;96.70;;;;;;4932352;29;20138;-66
2024/03/10 03:53:04;;;;;;;1.70;0.65;;;12.50;96.70;;;;;;4935606;29;20051;-66
2024/03/10 03:55:34;;;;;;;2.40;0.73;;;12.60;96.70;;;;;;4924416;29;20054;-66
2024/03/10 03:58:03;;;;;;;3.38;0.73;;;12.60;96.70;;;;;;4932410;29;20432;-66
2024/03/10 04:00:35;;;;;;;1.55;0.80;;;12.50;96.70;;;;;;4946393;29;20526;-66
2024/03/10 04:03:09;;;;;;;3.35;1.08;;;12.60;96.70;;;;;;4924827;29;20059;-66
2024/03/10 04:05:40;;;;;;;4.45;0.70;;;12.60;96.70;;;;;;4926076;29;20147;-66
2024/03/10 04:08:11;;;;;;;2.17;0.70;;;12.50;96.70;;;;;;4928210;29;20468;-65
2024/03/10 04:10:39;;;;;;;2.88;1.13;;;12.50;96.70;;;;;;4931223;29;20043;-66
2024/03/10 04:13:07;;;;;;;1.85;0.68;;;12.50;96.70;;;;;;4928802;29;20870;-66
2024/03/10 04:15:38;;;;;;;2.47;0.73;;;12.50;96.70;;;;;;4945920;29;20058;-66
2024/03/10 04:18:08;;;;;;;3.67;0.77;;;12.50;96.70;;;;;;4930936;29;20062;-66
2024/03/10 04:20:36;;;;;;;2.85;0.90;;;12.50;96.70;;;;;;4928781;29;20054;-66
2024/03/10 04:23:05;;;;;;;3.40;1.08;;;12.50;96.70;;;;;;4915013;29;20587;-65
2024/03/10 04:25:34;;;;;;;3.67;0.88;;;12.50;96.70;;;;;;4930017;29;20054;-66
2024/03/10 04:28:03;;;;;;;2.60;0.90;;;12.60;96.70;;;;;;4910866;29;20073;-66
2024/03/10 04:30:31;;;;;;;3.28;0.80;;;12.60;96.70;;;;;;4929778;29;20538;-66
2024/03/10 04:33:00;;;;;;;4.65;0.68;;;12.50;96.70;;;;;;4930587;29;20071;-66
2024/03/10 04:35:29;;;;;;;2.38;0.93;;;12.60;96.70;;;;;;4933838;29;20137;-66
2024/03/10 04:37:58;;;;;;;3.45;0.90;;;12.60;96.70;;;;;;4929732;29;20051;-65
2024/03/10 04:40:27;;;;;;;2.03;0.65;;;12.50;96.70;;;;;;4927640;29;20053;-66
2024/03/10 04:42:56;;;;;;;2.83;0.90;;;12.50;96.70;;;;;;4927805;29;20055;-66
2024/03/10 04:45:27;;;;;;;3.85;0.95;;;12.50;96.70;;;;;;4930361;29;20045;-66
2024/03/10 04:47:56;;;;;;;2.92;0.68;;;12.50;96.70;;;;;;4930307;29;20050;-66
2024/03/10 04:50:25;;;;;;;4.50;0.90;;;12.60;96.70;;;;;;4926150;29;20088;-66
2024/03/10 04:52:59;;;;;;;3.17;0.80;;;12.60;96.70;;;;;;4930678;29;20138;-66
2024/03/10 04:55:29;;;;;;;4.05;1.17;;;12.60;96.70;;;;;;4928508;29;20047;-66
2024/03/10 04:57:57;;;;;;;4.38;0.98;;;12.60;96.70;;;;;;4930561;29;21035;-66
2024/03/10 05:00:25;;;;;;;4.75;0.88;;;12.60;96.70;;;;;;4945105;29;20512;-66
2024/03/10 05:02:53;;;;;;;4.72;0.82;;;12.60;96.70;;;;;;4942200;29;20055;-66
2024/03/10 05:05:22;;;;;;;3.33;0.80;;;12.60;96.70;;;;;;4925460;29;20059;-66
2024/03/10 05:07:51;;;;;;;2.35;0.60;;;12.60;96.70;;;;;;4909610;29;20043;-66
2024/03/10 05:10:21;;;;;;;4.65;1.00;;;12.60;96.70;;;;;;4930591;29;20043;-66
2024/03/10 05:12:49;;;;;;;2.20;0.90;;;12.60;96.70;;;;;;4946307;29;20051;-66
2024/03/10 05:15:18;;;;;;;4.07;1.02;;;12.60;96.70;;;;;;4929400;29;20051;-66
2024/03/10 05:17:46;;;;;;;3.55;1.05;;;12.50;96.70;;;;;;4930840;29;20047;-67
2024/03/10 05:20:17;;;;;;;2.92;1.00;;;12.50;96.70;;;;;;4923673;29;20047;-66
2024/03/10 05:22:45;;;;;;;2.63;0.70;;;12.50;96.70;;;;;;4930080;29;20051;-66
2024/03/10 05:25:14;;;;;;;2.92;0.98;;;12.50;96.70;;;;;;4930753;29;20051;-66
2024/03/10 05:27:45;;;;;;;2.60;0.82;;;12.60;96.70;;;;;;4910412;29;20047;-66
2024/03/10 05:30:15;;;;;;;3.17;0.93;;;12.50;96.70;;;;;;4894909;29;20055;-66
2024/03/10 05:32:45;;;;;;;2.65;1.00;;;12.60;96.70;;;;;;4909235;29;20050;-66
2024/03/10 05:35:14;;;;;;;5.50;1.27;;;12.60;96.70;;;;;;4908734;29;20059;-66
2024/03/10 05:37:42;;;;;;;2.40;0.90;;;12.60;96.70;;;;;;4910427;29;20131;-66
2024/03/10 05:40:12;;;;;;;4.47;1.13;;;12.60;96.70;;;;;;4907619;29;20050;-66
2024/03/10 05:42:44;;;;;;;3.17;1.15;;;12.60;96.70;;;;;;4916894;29;20055;-66
2024/03/10 05:45:14;;;;;;;3.58;0.98;;;12.60;96.70;;;;;;4908835;29;20059;-66
2024/03/10 05:47:43;;;;;;;3.65;1.00;;;12.70;96.70;;;;;;4909263;29;20093;-66
2024/03/10 05:50:13;;;;;;;6.05;1.10;;;12.70;96.70;;;;;;4912513;29;20512;-66
2024/03/10 05:52:42;;;;;;;3.10;1.40;;;12.70;96.70;;;;;;4910820;29;20047;-66
2024/03/10 05:55:11;;;;;;;5.57;1.30;;;12.70;96.70;;;;;;4906143;29;20052;-66
2024/03/10 05:57:41;;;;;;;3.90;1.10;;;12.70;96.70;;;;;;4911473;29;20052;-65
2024/03/10 06:00:15;;;;;;;6.45;1.30;;;12.70;96.70;;;;;;4909919;29;20047;-66
2024/03/10 06:02:46;;;;;;;5.90;1.30;;;12.70;96.70;;;;;;4910450;29;20576;-66
2024/03/10 06:05:14;;;;;;;5.30;1.58;;;12.70;96.70;;;;;;4907815;29;20055;-66
2024/03/10 06:07:43;;;;;;;5.13;1.95;;;12.80;96.70;;;;;;4912077;29;20058;-66
2024/03/10 06:10:13;;;;;;;6.18;1.40;;;12.80;96.70;;;;;;4896024;29;20138;-66
2024/03/10 06:12:47;;;;;;;4.30;1.45;;;12.80;96.70;;;;;;4906645;29;20082;-66
2024/03/10 06:15:19;;;;;;;5.10;1.08;;;12.80;96.70;;;;;;4910491;29;20056;-67
2024/03/10 06:18:21;;;;;;;5.10;1.35;;;12.80;96.70;;;;;;4907658;29;20056;-66
2024/03/10 06:26:17;;;;;;;2.78;0.95;;;12.90;96.70;;;;;;4926416;29;20055;-66
2024/03/10 06:28:49;;;;;;;6.00;1.05;;;12.90;96.70;;;;;;4930295;29;20059;-66
2024/03/10 06:31:20;;;;;;;4.82;1.02;;;12.90;96.70;;;;;;4927789;29;20047;-66
2024/03/10 06:33:51;;;;;;;5.15;1.20;;;13.00;96.70;;;;;;4930041;29;20130;-66
2024/03/10 06:36:20;;;;;;;2.67;1.15;;;13.00;96.70;;;;;;4928439;29;20090;-66
2024/03/10 06:38:50;;;;;;;5.50;1.52;;;13.00;96.70;;;;;;4929560;29;20094;-67
2024/03/10 06:41:18;;;;;;;4.90;1.42;;;13.00;96.70;;;;;;4930101;29;20416;-66
2024/03/10 06:43:49;;;;;;;6.65;0.93;;;13.00;96.70;;;;;;4946731;29;20141;-66
2024/03/10 06:46:22;;;;;;;5.25;1.20;;;13.00;96.70;;;;;;4932757;29;20055;-66
2024/03/10 06:48:52;;;;;;;3.13;1.00;;;13.00;96.70;;;;;;4931925;29;20055;-66
2024/03/10 06:51:21;;;;;;;4.20;1.00;;;13.00;96.70;;;;;;4932205;29;20039;-66
2024/03/10 06:53:52;;;;;;;7.07;1.50;;;13.00;96.70;;;;;;4933182;29;20047;-66
2024/03/10 06:56:21;;;;;;;4.53;1.15;;;13.00;96.70;;;;;;4931766;29;20061;-66
2024/03/10 06:58:53;;;;;;;7.50;1.60;;;13.10;96.70;;;;;;4933087;29;20051;-66
2024/03/10 07:01:25;;;;;;;4.22;1.50;;;13.10;96.70;;;;;;4932079;29;20460;-66
2024/03/10 07:03:54;;;;;;;7.43;1.45;;;13.10;96.70;;;;;;4944712;29;20722;-66
2024/03/10 07:06:22;;;;;;;8.98;1.30;;;13.20;96.70;;;;;;4933051;29;20071;-66
2024/03/10 07:08:52;;;;;;;4.50;1.00;;;13.10;96.70;;;;;;4931589;29;20085;-66
2024/03/10 07:11:20;;;;;;;3.90;1.00;;;13.20;96.70;;;;;;4924691;29;20055;-67
2024/03/10 07:13:48;;;;;;;5.53;1.85;;;13.20;96.70;;;;;;4927861;29;20051;-66
2024/03/10 07:16:17;;;;;;;4.20;1.35;;;13.20;96.70;;;;;;4933141;29;20491;-66
2024/03/10 07:18:47;;;;;;;3.83;1.60;;;13.20;96.70;;;;;;4927217;29;21698;-66
2024/03/10 07:21:19;;;;;;;5.65;1.58;;;13.20;96.70;;;;;;4933487;29;20049;-66
2024/03/10 07:23:49;;;;;;;6.25;1.38;;;13.20;96.70;;;;;;4949689;28;20047;-66
2024/03/10 07:26:19;;;;;;;5.15;1.67;;;13.20;96.70;;;;;;4932974;29;20488;-66
2024/03/10 07:28:47;;;;;;;6.40;1.38;;;13.20;96.70;;;;;;4933419;29;20054;-66
2024/03/10 07:31:17;;;;;;;4.00;1.00;;;13.20;96.70;;;;;;4924465;29;20493;-66
2024/03/10 07:33:47;;;;;;;6.22;1.52;;;13.20;96.70;;;;;;4924284;29;20051;-65
2024/03/10 07:36:16;;;;;;;6.28;1.63;;;13.20;96.70;;;;;;4925115;29;20059;-66
2024/03/10 07:38:45;;;;;;;4.47;1.30;;;13.20;96.70;;;;;;4932525;29;20398;-66
2024/03/10 07:41:15;;;;;;;8.15;1.30;;;13.20;96.70;;;;;;4917152;29;20047;-65
2024/03/10 07:43:43;;;;;;;3.42;0.90;;;13.20;96.70;;;;;;4927449;29;20054;-66
2024/03/10 07:46:11;;;;;;;3.55;1.02;;;13.30;96.70;;;;;;4929425;29;20641;-65
2024/03/10 07:48:41;;;;;;;4.57;1.05;;;13.40;96.70;;;;;;4948727;29;20055;-66
2024/03/10 07:51:15;;;;;;;3.42;0.90;;;13.60;96.70;;;;;;4932211;29;20050;-66
2024/03/10 07:53:44;;;;;;;3.63;1.20;;;13.70;96.70;;;;;;4931744;29;20074;-66
2024/03/10 07:56:13;;;;;;;3.50;0.93;;;13.80;96.70;;;;;;4931091;29;20456;-65
2024/03/10 07:58:41;;;;;;;5.32;1.40;;;13.90;96.70;;;;;;4931150;29;20065;-66
2024/03/10 08:01:13;;;;;;;5.63;1.33;;;14.00;96.70;;;;;;4929540;29;20047;-66
2024/03/10 08:03:43;;;;;;;6.68;1.60;;;14.00;96.70;;;;;;4920272;29;20047;-66
2024/03/10 08:06:13;;;;;;;8.15;1.50;;;13.90;96.70;;;;;;4928403;29;21265;-67
2024/03/10 08:08:46;;;;;;;4.13;1.45;;;14.00;96.70;;;;;;4932838;29;20110;-66
2024/03/10 08:11:16;;;;;;;3.72;1.33;;;14.00;96.70;;;;;;4948739;29;20053;-67
2024/03/10 08:13:46;;;;;;;4.80;1.77;;;14.00;96.70;;;;;;4910796;29;20055;-67
2024/03/10 08:16:16;;;;;;;7.88;1.50;;;14.00;96.70;;;;;;4928735;29;20138;-66
2024/03/10 08:18:45;;;;;;;6.22;1.38;;;13.90;96.70;;;;;;4939603;29;20071;-67
2024/03/10 08:21:19;;;;;;;4.28;1.52;;;13.90;96.70;;;;;;4929455;29;20044;-66
2024/03/10 08:23:48;;;;;;;4.72;1.38;;;13.90;96.70;;;;;;4929327;29;20058;-66
2024/03/10 08:26:17;;;;;;;5.63;1.35;;;13.90;96.70;;;;;;4914358;29;20047;-66
2024/03/10 08:28:47;;;;;;;4.43;1.20;;;13.90;96.70;;;;;;4930634;29;20066;-72
2024/03/10 08:31:19;;;;;;;6.50;1.75;;;13.80;96.70;;;;;;4925528;29;20047;-66
2024/03/10 08:33:47;;;;;;;6.70;1.77;;;13.90;96.70;;;;;;4924445;29;20047;-66
2024/03/10 08:36:16;;;;;;;4.78;1.80;;;13.80;96.70;;;;;;4924363;29;20424;-65
2024/03/10 08:38:47;;;;;;;6.57;1.50;;;13.80;96.70;;;;;;4913255;29;20047;-66
2024/03/10 08:41:19;;;;;;;5.63;1.88;;;13.80;96.70;;;;;;4930888;29;20051;-66
2024/03/10 08:43:50;;;;;;;6.10;2.50;;;13.80;96.70;;;;;;4915454;29;20765;-66
2024/03/10 08:46:22;;;;;;;6.28;2.30;;;13.80;96.70;;;;;;4914639;29;20080;-67
2024/03/10 08:48:53;;;;;;;6.32;1.67;;;13.80;96.70;;;;;;4930355;29;20082;-69
2024/03/10 08:51:23;;;;;;;5.38;1.27;;;13.80;96.70;;;;;;4926366;29;20069;-67
2024/03/10 08:53:53;;;;;;;4.70;1.63;;;13.70;96.70;;;;;;4929670;29;20720;-68
2024/03/10 08:56:22;;;;;;;7.38;2.25;;;13.70;96.70;;;;;;4929612;29;20448;-67
2024/03/10 08:58:53;;;;;;;6.50;1.75;;;13.80;96.70;;;;;;4925967;29;20053;-67
2024/03/10 09:01:23;;;;;;;8.57;2.63;;;13.80;96.70;;;;;;4924048;29;20077;-66
2024/03/10 09:03:53;;;;;;;8.15;2.10;;;13.80;96.70;;;;;;4925401;29;20519;-67
2024/03/10 09:06:24;;;;;;;9.20;2.17;;;13.80;96.70;;;;;;4931305;29;20419;-66
2024/03/10 09:08:54;;;;;;;6.85;2.03;;;13.80;96.70;;;;;;4931502;29;20055;-66
2024/03/10 09:11:24;;;;;;;5.70;1.67;;;13.80;96.70;;;;;;4911771;29;20509;-67
2024/03/10 09:13:55;;;;;;;6.93;1.67;;;13.90;96.70;;;;;;4935006;29;20039;-68
2024/03/10 09:16:23;;;;;;;3.95;1.63;;;13.90;96.70;;;;;;4923108;29;20062;-67
2024/03/10 09:18:52;;;;;;;8.13;1.80;;;13.90;96.70;;;;;;4946581;29;20047;-67
2024/03/10 09:21:20;;;;;;;6.13;1.58;;;13.90;96.70;;;;;;4927924;29;20163;-67
2024/03/10 09:23:51;;;;;;;7.07;1.55;;;14.00;96.70;;;;;;4946916;29;20047;-68
2024/03/10 09:26:21;;;;;;;5.72;1.60;;;14.00;96.70;;;;;;4931043;29;20079;-67
2024/03/10 09:28:50;;;;;;;8.90;2.15;;;14.10;96.70;;;;;;4922419;29;20449;-68
2024/03/10 09:31:19;;;;;;;6.22;2.20;;;14.10;96.70;;;;;;4931384;28;20047;-66
2024/03/10 09:33:50;;;;;;;7.65;2.20;;;14.20;96.70;;;;;;4937648;29;20154;-67
2024/03/10 09:36:19;;;;;;;11.05;2.83;;;14.20;96.70;;;;;;4939307;28;20105;-67
2024/03/10 09:38:47;;;;;;;8.65;2.00;;;14.30;96.70;;;;;;4938575;29;20145;-67
2024/03/10 09:41:16;;;;;;;12.48;2.40;;;14.30;96.70;;;;;;4933686;28;20400;-66
2024/03/10 09:43:49;;;;;;;7.00;1.92;;;14.30;96.70;;;;;;4935614;29;20053;-67
2024/03/10 09:46:18;;;;;;;9.40;1.73;;;14.40;96.70;;;;;;4936190;28;20106;-67
2024/03/10 09:48:48;;;;;;;8.10;1.92;;;14.40;96.70;;;;;;4921770;29;20138;-66
2024/03/10 09:51:17;;;;;;;7.32;2.33;;;14.40;96.70;;;;;;4920629;28;20050;-67
2024/03/10 09:53:47;;;;;;;10.07;2.17;;;14.30;96.70;;;;;;4920363;29;20067;-67
2024/03/10 09:56:16;;;;;;;8.93;2.63;;;14.40;96.70;;;;;;4953075;28;20777;-68
2024/03/10 09:58:53;;;;;;;9.80;3.60;;;14.40;96.70;;;;;;4926701;29;20660;-67
2024/03/10 10:01:24;;;;;;;10.02;2.92;;;14.40;96.70;;;;;;4913182;29;20114;-67
2024/03/10 10:03:57;;;;;;;10.60;2.70;;;14.40;96.70;;;;;;4937904;29;20058;-67
2024/03/10 10:06:31;;;;;;;11.60;3.47;;;14.40;96.70;;;;;;4938049;29;20572;-67
2024/03/10 10:09:07;;;;;;;9.73;2.55;;;14.40;96.70;;;;;;4925833;29;20513;-68
2024/03/10 10:11:38;;;;;;;11.68;2.80;;;14.40;96.70;;;;;;4929775;29;20083;-66
2024/03/10 10:14:09;;;;;;;6.70;2.60;;;14.40;96.70;;;;;;4936069;28;20051;-66
2024/03/10 10:16:52;;;;;;;13.55;2.83;;;14.40;96.70;;;;;;4931331;28;20043;-68
2024/03/10 10:19:21;;;;;;;12.27;2.83;;;14.50;96.70;;;;;;4950111;28;20094;-67
2024/03/10 10:21:50;;;;;;;13.48;3.15;;;14.50;96.70;;;;;;4941437;28;20069;-68
2024/03/10 10:24:19;;;;;;;14.23;4.60;;;14.40;96.70;;;;;;4939196;28;20047;-68
2024/03/10 10:27:02;;;;;;;9.55;4.35;;;14.40;96.70;;;;;;4920716;29;20055;-68
2024/03/10 10:29:50;;;;;;;12.38;6.68;;;14.40;96.70;;;;;;4934439;29;20173;-66
2024/03/10 10:32:20;;;;;;;;;;;14.40;96.70;;;;;;4950685;29;20174;-68
2024/03/10 10:34:51;;;;;;;27.30;14.05;;;14.30;96.70;;;;;;4925484;29;20001;-69
2024/03/10 10:37:20;;;;;;;16.33;9.48;;;14.30;96.70;;;;;;4931621;29;20060;-67
2024/03/10 10:39:49;;;;;;;17.58;8.45;;;14.30;96.70;;;;;;4933566;29;20051;-66
2024/03/10 10:42:18;;;;;;;12.75;6.53;;;14.30;96.70;;;;;;4917108;29;20609;-68
2024/03/10 10:45:01;;;;;;;11.95;6.15;;;14.30;96.70;;;;;;4913716;29;20608;-68
2024/03/10 10:47:31;;;;;;;13.93;5.50;;;14.30;96.70;;;;;;4917897;29;20059;-67
2024/03/10 10:50:00;;;;;;;12.05;7.00;;;14.30;96.70;;;;;;4949902;29;20054;-69
2024/03/10 10:52:28;;;;;;;4.78;1.70;;;14.30;96.70;;;;;;4930380;29;20528;-69
2024/03/10 10:54:57;;;;;;;1.92;0.40;;;13.80;96.70;;;;;;4949538;29;20154;-67
2024/03/10 10:57:25;;;;;;;1.63;0.50;;;12.80;96.70;;;;;;4932805;29;20047;-68
2024/03/10 10:59:53;;;;;;;2.88;0.55;;;12.20;96.70;;;;;;4938936;29;20079;-68
2024/03/10 11:02:27;;;;;;;4.20;0.95;;;11.70;96.70;;;;;;4948679;29;20150;-69
2024/03/10 11:05:04;;;;;;;7.05;1.30;;;11.30;96.70;;;;;;4931569;29;20533;-68
2024/03/10 11:07:35;;;;;;;2.97;0.93;;;11.00;96.70;;;;;;4913982;28;20102;-65
2024/03/10 11:10:37;;;;;;;3.58;1.30;;;10.70;96.70;;;;;;4937931;29;20145;-68
2024/03/10 11:13:08;;;;;;;2.30;0.50;;;10.70;96.70;;;;;;4927523;29;20111;-68
2024/03/10 11:15:37;;;;;;;2.10;0.43;;;10.70;96.70;;;;;;4931492;29;20050;-68
2024/03/10 11:18:27;;;;;;;2.70;0.63;;;10.70;96.70;;;;;;4915724;29;20050;-67
2024/03/10 11:20:58;;;;;;;2.17;0.73;;;10.70;96.70;;;;;;4931215;29;20055;-68
2024/03/10 11:23:37;;;;;;;3.15;0.80;;;10.80;96.70;;;;;;4931647;29;20047;-68
2024/03/10 11:26:09;;;;;;;2.65;1.23;;;10.80;96.70;;;;;;4930535;29;20111;-67
2024/03/10 11:28:50;;;;;;;2.85;0.93;;;10.80;96.70;;;;;;4915295;29;20050;-68
2024/03/10 11:31:38;;;;;;;4.10;1.50;;;10.80;96.70;;;;;;4929682;29;20051;-69
2024/03/10 11:34:10;;;;;;;3.00;1.38;;;10.80;96.70;;;;;;4915044;29;20094;-68
2024/03/10 11:36:39;;;;;;;5.95;2.20;;;10.80;96.70;;;;;;4917185;29;20051;-68
2024/03/10 11:39:08;;;;;;;8.40;3.78;;;10.90;96.70;;;;;;4912211;29;20051;-69
2024/03/10 11:41:40;;;;;;;4.28;1.40;;;10.90;96.70;;;;;;4947977;29;20420;-69
2024/03/10 11:44:11;;;;;;;5.55;2.15;;;10.90;96.70;;;;;;4931473;29;20094;-69
2024/03/10 11:46:43;;;;;;;3.22;2.17;;;11.00;96.70;;;;;;4925739;29;20142;-69
2024/03/10 11:49:14;;;;;;;4.13;2.88;;;11.10;96.70;;;;;;4920168;29;20060;-68
2024/03/10 11:51:46;;;;;;;2.50;1.30;;;11.40;96.70;;;;;;4926780;29;21329;-69
2024/03/10 11:54:14;;;;;;;2.30;1.20;;;11.40;96.70;;;;;;4934065;29;20114;-69
2024/03/10 11:56:43;;;;;;;2.65;1.20;;;11.60;96.70;;;;;;4931858;29;20563;-69
2024/03/10 11:59:13;;;;;;;2.35;1.52;;;11.70;96.70;;;;;;4947059;29;20063;-68
2024/03/10 12:01:45;;;;;;;2.50;0.90;;;11.80;96.70;;;;;;4923562;29;20043;-69
2024/03/10 12:04:15;;;;;;;2.10;0.65;;;11.90;96.70;;;;;;4931560;29;20058;-68
2024/03/10 12:06:44;;;;;;;3.63;2.78;;;11.90;96.70;;;;;;4931329;29;20065;-67
2024/03/10 12:09:20;;;;;;;2.55;1.55;;;11.90;96.70;;;;;;4916095;29;20047;-68
2024/03/10 12:11:51;;;;;;;4.63;4.22;;;12.00;96.70;;;;;;4926985;29;20054;-69
2024/03/10 12:14:21;;;;;;;3.28;1.98;;;12.10;96.70;;;;;;4930248;29;20047;-68
2024/03/10 12:16:51;;;;;;;2.67;1.77;;;12.10;96.70;;;;;;4910874;29;20540;-68
2024/03/10 12:19:23;;;;;;;2.63;1.10;;;12.10;96.70;;;;;;4931170;29;20051;-69
2024/03/10 12:21:54;;;;;;;3.00;0.98;;;12.20;96.70;;;;;;4930841;29;20047;-68
2024/03/10 12:24:24;;;;;;;3.03;2.50;;;12.20;96.70;;;;;;4925624;29;20131;-69
2024/03/10 12:26:54;;;;;;;2.10;1.40;;;12.30;96.70;;;;;;4946523;28;20058;-68
2024/03/10 12:29:23;;;;;;;3.33;2.20;;;12.40;96.70;;;;;;4930275;29;20062;-69
2024/03/10 12:31:52;;;;;;;3.53;1.10;;;12.50;96.70;;;;;;4944936;29;20055;-69
2024/03/10 12:34:24;;;;;;;3.53;0.80;;;12.50;96.70;;;;;;4924693;29;20070;-69
2024/03/10 12:36:52;;;;;;;3.53;1.00;;;12.70;96.70;;;;;;4944021;29;20043;-69
2024/03/10 12:39:23;;;;;;;3.25;1.70;;;12.80;96.70;;;;;;4944621;28;20702;-70
2024/03/10 12:41:51;;;;;;;5.05;3.20;;;12.70;96.70;;;;;;4921748;29;20059;-70
2024/03/10 12:44:21;;;;;;;8.00;4.40;;;12.90;96.70;;;;;;4930166;29;20440;-69
2024/03/10 12:46:49;;;;;;;6.97;3.40;;;12.80;96.70;;;;;;4946362;29;20484;-70
2024/03/10 12:49:18;;;;;;;5.65;3.67;;;12.90;96.70;;;;;;4942514;29;20501;-68
2024/03/10 12:51:48;;;;;;;4.65;3.05;;;12.90;96.70;;;;;;4931722;29;20066;-69
2024/03/10 12:54:16;;;;;;;5.07;2.38;;;12.90;96.70;;;;;;4927361;28;20054;-69
2024/03/10 12:56:45;;;;;;;4.10;1.50;;;12.90;96.70;;;;;;4935865;29;20058;-70
2024/03/10 12:59:14;;;;;;;3.05;1.10;;;12.90;96.70;;;;;;4919864;29;20114;-70
2024/03/10 13:01:42;;;;;;;2.38;1.50;;;12.90;96.70;;;;;;4930894;29;20043;-70
2024/03/10 13:04:13;;;;;;;1.42;1.30;;;13.00;96.70;;;;;;4915181;29;20059;-69
2024/03/10 13:09:54;;;;;;;5.82;4.03;;;13.10;96.70;;;;;;4929450;29;20110;-69
2024/03/10 13:12:24;;;;;;;8.95;5.28;;;13.20;96.70;;;;;;4911084;29;20352;-69
2024/03/10 13:14:54;;;;;;;4.25;2.35;;;13.30;96.70;;;;;;4914034;29;20138;-69
2024/03/10 13:17:23;;;;;;;2.47;1.20;;;13.60;96.70;;;;;;4929040;29;20315;-69
2024/03/10 13:19:51;;;;;;;4.80;1.48;;;13.80;96.70;;;;;;4913744;28;20047;-68
2024/03/10 13:22:20;;;;;;;1.90;0.70;;;14.20;96.70;;;;;;4929042;29;20674;-68
2024/03/10 13:24:50;;;;;;;1.45;0.77;;;14.20;96.70;;;;;;4913769;29;20599;-69
2024/03/10 13:27:20;;;;;;;3.15;0.93;;;14.40;96.70;;;;;;4944113;28;20551;-69